CYBB/YBB METAR and TAF weather

Enter ICAO airport designator
Station Type Date Time Source
CYBB METAR 2019/06/16 00:00 UTC NOAA

CYBB 160000Z 19010G16KT 15SM SCT040 BKN210 11/04 A3014 RMK SC3CS4 0.0/LAST STFD OBS/NXT 161700Z SLP210


Station Type Date Time Source
CYBB Decoded METAR 2019/06/16 00:00 UTC NOAA

Pelly Bay Airport, Canada (CYBB) 68-32N 089-49W
Jun 15, 2019 - 08:00 PM EDT / 2019.06.16 0000 UTC
Wind: from the S (190 degrees) at 12 MPH (10 KT) gusting to 18 MPH (16 KT):0
Visibility: 15 mile(s):0
Sky conditions: mostly cloudy
Temperature: 51 F (11 C)
Dew Point: 39 F (4 C)
Relative Humidity: 61%
Pressure (altimeter): 30.14 in. Hg (1020 hPa)
ob: CYBB 160000Z 19010G16KT 15SM SCT040 BKN210 11/04 A3014 RMK SC3CS4 0.0/LAST STFD OBS/NXT 161700Z SLP210
cycle: 0

Station Type Date Time Source
CYBB TAF 2019/06/15 19:00 UTC NOAA

TAF CYBB 151838Z 1519/1524 21012G22KT P6SM BKN030
TEMPO 1519/1524 5SM -RA BR BKN020
RMK NXT FCST WILL BE ISSUED AT 161845Z

Example: see airport list